createdAt,value
2019-01-21T00:02:27.911Z,-1.70
2019-01-21T00:05:09.891Z,-1.80
2019-01-21T00:07:57.949Z,-1.90
2019-01-21T00:10:26.655Z,-1.70
2019-01-21T00:13:14.718Z,-1.90
2019-01-21T00:16:02.840Z,-1.90
2019-01-21T00:18:44.852Z,-1.80
2019-01-21T00:21:32.862Z,-1.90
2019-01-21T00:24:01.654Z,-1.90
2019-01-21T00:26:49.589Z,-2.10
2019-01-21T00:29:31.888Z,-2.10
2019-01-21T00:32:19.808Z,-2.20
2019-01-21T00:35:01.149Z,-2.10
2019-01-21T00:37:49.117Z,-2.10
2019-01-21T00:40:30.590Z,-2.10
2019-01-21T00:43:18.589Z,-2.00
2019-01-21T00:45:47.376Z,-1.90
2019-01-21T00:48:35.488Z,-2.00
2019-01-21T00:51:23.509Z,-2.20
2019-01-21T00:54:04.838Z,-2.30
2019-01-21T00:56:52.870Z,-2.10
2019-01-21T00:59:21.559Z,-2.10
2019-01-21T01:02:09.800Z,-2.10
2019-01-21T01:04:51.590Z,-2.20
2019-01-21T01:07:39.604Z,-2.30
2019-01-21T01:10:21.590Z,-2.30
2019-01-21T01:13:09.630Z,-2.40
2019-01-21T01:15:38.414Z,-2.40
2019-01-21T01:18:07.153Z,-2.30
2019-01-21T01:20:55.204Z,-2.30
2019-01-21T01:23:43.233Z,-2.40
2019-01-21T01:26:24.800Z,-2.40
2019-01-21T01:29:12.797Z,-2.40
2019-01-21T01:31:54.597Z,-2.50
2019-01-21T01:34:42.537Z,-2.50
2019-01-21T01:37:24.613Z,-2.40
2019-01-21T01:40:27.229Z,-2.40
2019-01-21T01:43:09.092Z,-2.50
2019-01-21T01:45:38.188Z,-2.40
2019-01-21T01:48:26.215Z,-2.40
2019-01-21T01:51:07.390Z,-2.40
2019-01-21T01:53:55.431Z,-2.50
2019-01-21T01:56:36.689Z,-2.60
2019-01-21T01:59:18.036Z,-2.40
2019-01-21T02:02:06.040Z,-2.30
2019-01-21T02:04:48.064Z,-2.40
2019-01-21T02:07:36.087Z,-2.30
2019-01-21T02:10:18.026Z,-2.40
2019-01-21T02:13:06.329Z,-2.30
2019-01-21T02:15:49.337Z,-2.30
2019-01-21T02:18:37.515Z,-2.30
2019-01-21T02:21:46.295Z,-2.30
2019-01-21T02:24:29.954Z,-2.30
2019-01-21T02:27:37.333Z,-2.50
2019-01-21T02:33:25.300Z,-2.40
2019-01-21T02:36:32.763Z,-2.50
2019-01-21T02:39:40.257Z,-2.50
2019-01-21T02:42:47.473Z,-2.50
2019-01-21T02:45:48.497Z,-2.50
2019-01-21T02:48:55.825Z,-2.50
2019-01-21T02:52:03.712Z,-2.50
2019-01-21T02:55:11.051Z,-2.50
2019-01-21T02:57:56.769Z,-2.60
2019-01-21T03:01:04.058Z,-2.50
2019-01-21T03:04:07.821Z,-2.40
2019-01-21T03:07:15.233Z,-2.60
2019-01-21T03:10:00.855Z,-2.60
2019-01-21T03:13:09.516Z,-2.60
2019-01-21T03:15:55.569Z,-2.60
2019-01-21T03:19:04.275Z,-2.70
2019-01-21T03:22:05.899Z,-2.70
2019-01-21T03:25:13.220Z,-2.80
2019-01-21T03:28:16.855Z,-3.00
2019-01-21T03:31:24.164Z,-2.80
2019-01-21T03:34:06.964Z,-2.80
2019-01-21T03:37:14.403Z,-2.90
2019-01-21T03:40:00.527Z,-2.80
2019-01-21T03:43:07.804Z,-2.70
2019-01-21T03:46:15.129Z,-2.70
2019-01-21T03:49:17.421Z,-2.80
2019-01-21T03:52:00.408Z,-2.90
2019-01-21T03:54:48.776Z,-2.90
2019-01-21T03:57:31.630Z,-2.90
2019-01-21T04:00:34.122Z,-2.90
2019-01-21T04:03:24.996Z,-2.90
2019-01-21T04:06:05.417Z,-3.00
2019-01-21T04:08:59.219Z,-3.00
2019-01-21T04:12:03.333Z,-3.10
2019-01-21T04:14:40.593Z,-3.10
2019-01-21T04:17:39.188Z,-3.10
2019-01-21T04:20:16.376Z,-3.10
2019-01-21T04:22:48.089Z,-3.00
2019-01-21T04:25:19.761Z,-3.10
2019-01-21T04:28:07.718Z,-3.20
2019-01-21T04:30:39.388Z,-3.20
2019-01-21T04:33:22.552Z,-3.10
2019-01-21T04:35:56.913Z,-3.00
2019-01-21T04:38:56.977Z,-3.10
2019-01-21T04:41:37.456Z,-3.10
2019-01-21T04:44:20.827Z,-3.10
2019-01-21T04:47:13.596Z,-3.00
2019-01-21T04:49:50.812Z,-3.00
2019-01-21T04:52:27.890Z,-3.00
2019-01-21T04:55:05.364Z,-3.00
2019-01-21T04:57:39.645Z,-3.10
2019-01-21T05:00:36.303Z,-3.10
2019-01-21T05:03:40.552Z,-3.10
2019-01-21T05:06:21.400Z,-3.00
2019-01-21T05:09:04.994Z,-3.10
2019-01-21T05:11:57.162Z,-3.10
2019-01-21T05:14:34.527Z,-3.10
2019-01-21T05:17:23.974Z,-3.20
2019-01-21T05:20:13.613Z,-3.20
2019-01-21T05:23:09.095Z,-3.20
2019-01-21T05:26:04.210Z,-3.20
2019-01-21T05:28:44.571Z,-3.10
2019-01-21T05:31:19.030Z,-3.20
2019-01-21T05:33:58.921Z,-3.20
2019-01-21T05:37:03.522Z,-3.10
2019-01-21T05:39:35.246Z,-3.20
2019-01-21T05:42:38.171Z,-3.20
2019-01-21T05:45:30.403Z,-3.20
2019-01-21T05:48:14.090Z,-3.20
2019-01-21T05:51:11.092Z,-3.20
2019-01-21T05:54:03.345Z,-3.20
2019-01-21T05:56:52.632Z,-3.10
2019-01-21T05:59:26.862Z,-3.00
2019-01-21T06:02:07.593Z,-3.00
2019-01-21T06:05:01.630Z,-3.10
2019-01-21T06:07:36.145Z,-3.10
2019-01-21T06:10:16.763Z,-3.00
2019-01-21T06:12:54.317Z,-3.00
2019-01-21T06:15:46.742Z,-3.00
2019-01-21T06:18:24.296Z,-3.10
2019-01-21T06:21:07.557Z,-3.10
2019-01-21T06:23:45.246Z,-3.20
2019-01-21T06:26:22.424Z,-1.60
2019-01-21T06:29:05.419Z,-3.10
2019-01-21T06:31:48.607Z,-3.20
2019-01-21T06:34:36.378Z,-3.20
2019-01-21T06:37:17.132Z,-3.20
2019-01-21T06:40:21.313Z,-3.30
2019-01-21T06:43:14.971Z,-3.40
2019-01-21T06:45:46.748Z,-3.30
2019-01-21T06:48:33.111Z,-3.30
2019-01-21T06:51:10.735Z,-3.30
2019-01-21T06:54:06.085Z,-3.40
2019-01-21T06:56:47.458Z,-3.30
2019-01-21T06:59:25.422Z,-3.20
2019-01-21T07:02:31.551Z,-3.20
2019-01-21T07:05:14.465Z,-3.30
2019-01-21T07:07:54.581Z,-3.30
2019-01-21T07:10:38.314Z,-3.30
2019-01-21T07:13:13.060Z,-3.20
2019-01-21T07:16:03.309Z,-3.10
2019-01-21T07:18:35.556Z,-3.20
2019-01-21T07:21:19.294Z,-3.10
2019-01-21T07:24:10.650Z,-3.20
2019-01-21T07:26:48.364Z,-3.10
2019-01-21T07:29:31.750Z,-3.10
2019-01-21T07:32:24.454Z,-3.10
2019-01-21T07:34:56.592Z,-3.10
2019-01-21T07:37:28.599Z,-3.10
2019-01-21T07:40:27.461Z,-3.10
2019-01-21T07:43:02.528Z,-3.10
2019-01-21T07:45:50.852Z,-2.90
2019-01-21T07:48:25.435Z,-3.00
2019-01-21T07:51:19.735Z,-3.00
2019-01-21T07:54:24.655Z,-3.00
2019-01-21T07:57:11.569Z,-2.90
2019-01-21T07:59:46.778Z,-3.00
2019-01-21T08:02:38.170Z,-2.90
2019-01-21T08:05:22.158Z,-2.90
2019-01-21T08:07:56.515Z,-2.80
2019-01-21T08:10:43.220Z,-2.60
2019-01-21T08:13:32.368Z,-2.60
2019-01-21T08:16:06.594Z,-2.40
2019-01-21T08:18:46.841Z,-2.30
2019-01-21T08:21:37.938Z,-2.20
2019-01-21T08:24:28.840Z,-2.00
2019-01-21T08:27:15.229Z,-2.00
2019-01-21T08:29:52.653Z,-1.90
2019-01-21T08:32:39.611Z,-1.80
2019-01-21T08:35:20.002Z,-1.60
2019-01-21T08:38:09.775Z,-1.70
2019-01-21T08:40:44.363Z,-1.70
2019-01-21T08:43:33.641Z,-1.50
2019-01-21T08:46:14.289Z,-1.40
2019-01-21T08:49:04.865Z,-1.40
2019-01-21T08:51:39.181Z,-1.30
2019-01-21T08:54:11.019Z,-1.20
2019-01-21T08:56:48.665Z,-0.60
2019-01-21T08:59:21.438Z,2.80
2019-01-21T09:01:56.761Z,6.00
2019-01-21T09:04:39.522Z,8.20
2019-01-21T09:07:33.525Z,9.80
2019-01-21T09:10:26.341Z,9.10
2019-01-21T09:13:06.628Z,6.00
2019-01-21T09:15:41.437Z,3.60
2019-01-21T09:18:16.362Z,2.70
2019-01-21T09:20:56.431Z,2.00
2019-01-21T09:23:34.726Z,1.20
2019-01-21T09:26:34.098Z,0.50
2019-01-21T09:29:14.856Z,0.40
2019-01-21T09:32:04.709Z,0.60
2019-01-21T09:34:55.806Z,0.40
2019-01-21T09:37:45.338Z,0.20
2019-01-21T09:40:34.879Z,0.20
2019-01-21T09:43:09.314Z,0.30
2019-01-21T09:45:58.721Z,0.20
2019-01-21T09:48:26.342Z,0.20
2019-01-21T09:50:58.197Z,0.20
2019-01-21T09:53:27.152Z,0.10
2019-01-21T09:55:55.978Z,0.30
2019-01-21T09:58:25.040Z,0.30
2019-01-21T10:00:54.261Z,0.40
2019-01-21T10:03:23.489Z,0.40
2019-01-21T10:05:55.699Z,0.40
2019-01-21T10:08:28.518Z,0.40
2019-01-21T10:11:24.937Z,0.50
2019-01-21T10:13:59.878Z,0.60
2019-01-21T10:16:49.552Z,0.50
2019-01-21T10:19:30.706Z,0.60
2019-01-21T10:22:21.063Z,0.60
2019-01-21T10:25:11.832Z,0.80
2019-01-21T10:27:51.665Z,0.60
2019-01-21T10:30:43.039Z,0.70
2019-01-21T10:33:42.121Z,1.50
2019-01-21T10:36:46.764Z,6.50
2019-01-21T10:39:33.934Z,11.90
2019-01-21T10:42:08.803Z,14.90
2019-01-21T10:45:00.814Z,18.00
2019-01-21T10:47:35.968Z,19.50
2019-01-21T10:50:31.729Z,20.60
2019-01-21T10:53:06.192Z,21.00
2019-01-21T10:55:52.578Z,20.90
2019-01-21T10:58:54.186Z,21.80
2019-01-21T11:01:25.882Z,22.10
2019-01-21T11:03:57.625Z,23.40
2019-01-21T11:06:53.806Z,23.80
2019-01-21T11:09:31.727Z,23.10
2019-01-21T11:12:15.636Z,23.70
2019-01-21T11:14:54.386Z,23.50
2019-01-21T11:17:40.745Z,23.40
2019-01-21T11:20:27.894Z,23.80
2019-01-21T11:23:12.511Z,23.60
2019-01-21T11:26:08.439Z,22.80
2019-01-21T11:28:45.633Z,23.80
2019-01-21T11:31:25.888Z,23.80
2019-01-21T11:34:18.371Z,23.20
2019-01-21T11:36:50.107Z,23.10
2019-01-21T11:39:33.807Z,23.00
2019-01-21T11:42:05.576Z,23.40
2019-01-21T11:44:55.136Z,23.60
2019-01-21T11:47:31.815Z,24.10
2019-01-21T11:50:12.581Z,23.80
2019-01-21T11:52:46.800Z,24.00
2019-01-21T11:55:45.534Z,23.40
2019-01-21T11:58:38.255Z,23.30
2019-01-21T12:01:15.704Z,24.20
2019-01-21T12:07:24.387Z,19.30
2019-01-21T12:13:13.726Z,16.30
2019-01-21T12:16:07.238Z,16.40
2019-01-21T12:27:38.223Z,15.10
2019-01-21T12:30:26.741Z,14.50
2019-01-21T12:35:59.761Z,13.60
2019-01-21T12:38:55.205Z,13.50
2019-01-21T12:41:41.798Z,13.60
2019-01-21T12:47:27.527Z,12.40
2019-01-21T12:50:23.804Z,11.20
2019-01-21T12:53:26.378Z,10.50
2019-01-21T12:56:32.281Z,10.70
2019-01-21T12:59:37.022Z,10.20
2019-01-21T13:02:26.484Z,9.60
2019-01-21T13:05:15.865Z,9.80
2019-01-21T13:08:08.531Z,9.30
2019-01-21T13:10:46.352Z,8.70
2019-01-21T13:13:41.903Z,9.50
2019-01-21T13:16:14.197Z,10.30
2019-01-21T13:19:08.118Z,11.40
2019-01-21T13:21:51.650Z,11.40
2019-01-21T13:24:31.977Z,11.00
2019-01-21T13:27:09.689Z,9.80
2019-01-21T13:29:42.056Z,10.10
2019-01-21T13:32:29.921Z,9.90
2019-01-21T13:35:03.632Z,10.10
2019-01-21T13:41:05.266Z,8.90
2019-01-21T13:43:42.317Z,8.60
2019-01-21T13:46:19.763Z,8.50
2019-01-21T13:48:57.540Z,8.60
2019-01-21T13:51:32.148Z,8.30
2019-01-21T13:54:25.297Z,7.70
2019-01-21T13:57:13.337Z,7.40
2019-01-21T13:59:59.093Z,7.50
2019-01-21T14:02:35.286Z,6.40
2019-01-21T14:05:30.866Z,6.90
2019-01-21T14:08:01.020Z,6.80
2019-01-21T14:10:42.137Z,6.40
2019-01-21T14:13:13.902Z,6.80
2019-01-21T14:15:53.956Z,6.30
2019-01-21T14:18:38.129Z,6.30
2019-01-21T14:21:28.595Z,6.00
2019-01-21T14:24:14.107Z,5.50
2019-01-21T14:27:12.428Z,5.00
2019-01-21T14:29:55.829Z,4.40
2019-01-21T14:32:38.826Z,4.40
2019-01-21T14:35:27.509Z,3.90
2019-01-21T14:38:22.620Z,3.60
2019-01-21T14:41:06.793Z,3.60
2019-01-21T14:44:06.417Z,3.60
2019-01-21T14:49:59.344Z,2.90
2019-01-21T14:52:34.082Z,2.90
2019-01-21T15:02:05.085Z,2.60
2019-01-21T15:05:12.493Z,2.70
2019-01-21T15:07:56.304Z,2.50
2019-01-21T15:11:03.906Z,2.30
2019-01-21T15:13:50.046Z,2.20
2019-01-21T15:16:58.842Z,2.30
2019-01-21T15:19:42.479Z,2.10
2019-01-21T15:25:50.981Z,1.90
2019-01-21T15:28:58.343Z,1.80
2019-01-21T15:32:08.008Z,1.70
2019-01-21T15:35:20.701Z,1.50
2019-01-21T15:37:59.498Z,1.40
2019-01-21T15:40:45.591Z,1.40
2019-01-21T15:43:54.012Z,1.40
2019-01-21T15:46:37.808Z,1.20
2019-01-21T15:49:45.209Z,1.40
2019-01-21T15:52:28.082Z,1.30
2019-01-21T15:55:36.873Z,0.90
2019-01-21T15:58:23.695Z,0.80
2019-01-21T16:01:32.456Z,0.70
2019-01-21T16:04:34.820Z,0.80
2019-01-21T16:07:37.489Z,0.80
2019-01-21T16:10:44.918Z,0.60
2019-01-21T16:17:14.191Z,0.40
2019-01-21T16:20:16.608Z,0.30
2019-01-21T16:23:19.612Z,0.40
2019-01-21T16:26:07.797Z,0.50
2019-01-21T16:28:56.436Z,0.30
2019-01-21T16:31:45.695Z,0.20
2019-01-21T16:34:54.130Z,0.40
2019-01-21T16:37:40.399Z,0.50
2019-01-21T16:40:55.569Z,0.40
2019-01-21T16:43:25.563Z,0.10
2019-01-21T16:45:54.434Z,-0.20
2019-01-21T16:48:23.212Z,-0.10
2019-01-21T16:51:11.437Z,-0.30
2019-01-21T16:53:59.555Z,-0.30
2019-01-21T16:56:28.337Z,-0.10
2019-01-21T16:58:57.029Z,-0.10
2019-01-21T17:01:45.033Z,-0.10
2019-01-21T17:04:33.317Z,-0.40
2019-01-21T17:07:02.373Z,0.60
2019-01-21T17:09:50.982Z,-0.90
2019-01-21T17:12:39.020Z,-1.00
2019-01-21T17:15:21.299Z,-1.00
2019-01-21T17:17:50.015Z,-0.80
2019-01-21T17:20:38.906Z,-0.70
2019-01-21T17:23:21.561Z,-0.80
2019-01-21T17:26:09.639Z,-0.80
2019-01-21T17:28:51.526Z,-0.60
2019-01-21T17:31:39.776Z,-0.60
2019-01-21T17:34:21.404Z,-0.70
2019-01-21T17:36:49.997Z,-0.70
2019-01-21T17:39:38.080Z,-0.80
2019-01-21T17:42:26.162Z,-0.90
2019-01-21T17:45:29.077Z,-0.90
2019-01-21T17:48:17.086Z,-1.00
2019-01-21T17:50:58.534Z,-1.10
2019-01-21T17:53:51.262Z,-1.20
2019-01-21T17:56:29.909Z,-1.40
2019-01-21T17:58:58.809Z,-1.40
2019-01-21T18:01:46.816Z,-1.30
2019-01-21T18:04:28.902Z,-1.30
2019-01-21T18:07:16.970Z,-1.30
2019-01-21T18:09:59.812Z,-1.20
2019-01-21T18:12:47.773Z,-1.10
2019-01-21T18:15:29.740Z,-1.00
2019-01-21T18:18:18.152Z,-1.10
2019-01-21T18:20:46.937Z,-1.20
2019-01-21T18:23:34.951Z,-1.20
2019-01-21T18:26:16.453Z,-1.40
2019-01-21T18:29:04.496Z,-1.60
2019-01-21T18:31:46.570Z,-1.70
2019-01-21T18:34:34.628Z,-1.70
2019-01-21T18:37:16.660Z,-1.70
2019-01-21T18:40:19.533Z,-1.70
2019-01-21T18:43:07.562Z,-1.80
2019-01-21T18:45:48.861Z,-1.80
2019-01-21T18:48:36.851Z,-2.00
2019-01-21T18:51:18.634Z,-1.90
2019-01-21T18:53:59.843Z,-2.00
2019-01-21T18:56:47.905Z,-1.90
2019-01-21T19:02:37.116Z,-2.00
2019-01-21T19:05:26.546Z,-2.10
2019-01-21T19:08:08.696Z,-2.10
2019-01-21T19:10:56.621Z,-2.10
2019-01-21T19:13:38.512Z,-2.30
2019-01-21T19:16:26.538Z,-2.20
2019-01-21T19:19:09.515Z,-2.20
2019-01-21T19:21:38.308Z,-2.20
2019-01-21T19:24:07.224Z,-2.30
2019-01-21T19:26:55.372Z,-2.20
2019-01-21T19:29:37.232Z,-2.20
2019-01-21T19:32:25.341Z,-2.20
2019-01-21T19:35:08.370Z,-2.20
2019-01-21T19:37:56.419Z,-2.20
2019-01-21T19:40:38.192Z,-2.30
2019-01-21T19:43:26.233Z,-2.30
2019-01-21T19:46:08.185Z,-2.50
2019-01-21T19:48:56.221Z,-2.50
2019-01-21T19:51:38.288Z,-2.40
2019-01-21T19:54:26.295Z,-2.70
2019-01-21T19:57:09.518Z,-2.80
2019-01-21T19:59:57.555Z,-2.70
2019-01-21T20:02:38.996Z,-2.60
2019-01-21T20:05:27.025Z,-2.70
2019-01-21T20:08:08.220Z,-2.70
2019-01-21T20:10:56.185Z,-2.70
2019-01-21T20:13:38.081Z,-2.70
2019-01-21T20:16:26.133Z,-2.60
2019-01-21T20:19:14.067Z,-2.60
2019-01-21T20:21:55.905Z,-2.70
2019-01-21T20:24:43.948Z,-2.80
2019-01-21T20:27:26.017Z,-3.10
2019-01-21T20:30:33.275Z,-3.20
2019-01-21T20:33:14.820Z,-3.40
2019-01-21T20:35:56.030Z,-3.50
2019-01-21T20:38:44.059Z,-3.40
2019-01-21T20:41:25.496Z,-3.20
2019-01-21T20:44:13.570Z,-3.10
2019-01-21T20:46:54.871Z,-3.30
2019-01-21T20:49:42.835Z,-3.40
2019-01-21T20:54:52.921Z,-3.40
2019-01-21T20:57:40.908Z,-3.40
2019-01-21T21:00:23.612Z,-3.30
2019-01-21T21:03:05.559Z,-3.20
2019-01-21T21:05:53.790Z,-3.30
2019-01-21T21:08:35.580Z,-3.20
2019-01-21T21:11:04.308Z,-3.20
2019-01-21T21:13:52.368Z,-3.30
2019-01-21T21:16:34.604Z,-3.20
2019-01-21T21:19:22.610Z,-3.40
2019-01-21T21:22:04.637Z,-3.60
2019-01-21T21:24:52.680Z,-3.60
2019-01-21T21:27:34.124Z,-3.70
2019-01-21T21:30:36.093Z,-3.80
2019-01-21T21:33:18.263Z,-3.60
2019-01-21T21:36:06.301Z,-3.60
2019-01-21T21:38:54.329Z,-3.60
2019-01-21T21:41:36.047Z,-3.60
2019-01-21T21:44:24.040Z,-3.50
2019-01-21T21:47:06.309Z,-3.50
2019-01-21T21:49:54.372Z,-3.40
2019-01-21T21:52:38.137Z,-3.50
2019-01-21T21:55:20.154Z,-3.60
2019-01-21T21:58:08.168Z,-3.70
2019-01-21T22:00:56.297Z,-3.50
2019-01-21T22:03:37.555Z,-3.50
2019-01-21T22:06:25.543Z,-3.50
2019-01-21T22:09:07.281Z,-3.60
2019-01-21T22:11:55.449Z,-3.80
2019-01-21T22:14:37.092Z,-3.80
2019-01-21T22:17:25.144Z,-3.90
2019-01-21T22:20:07.911Z,-4.00
2019-01-21T22:22:55.968Z,-3.90
2019-01-21T22:25:37.951Z,-3.90
2019-01-21T22:28:25.980Z,-3.80
2019-01-21T22:31:07.072Z,-3.80
2019-01-21T22:33:35.812Z,-3.80
2019-01-21T22:36:23.812Z,-3.70
2019-01-21T22:39:12.203Z,-3.70
2019-01-21T22:42:00.204Z,-3.70
2019-01-21T22:44:28.989Z,-3.80
2019-01-21T22:46:57.737Z,-3.80
2019-01-21T22:49:45.840Z,-3.80
2019-01-21T22:52:14.473Z,-3.90
2019-01-21T22:54:57.572Z,-3.70
2019-01-21T22:57:45.583Z,-3.90
2019-01-21T23:03:35.652Z,-4.00
2019-01-21T23:06:17.812Z,-4.00
2019-01-21T23:09:20.365Z,-4.00
2019-01-21T23:12:08.419Z,-3.90
2019-01-21T23:14:50.381Z,-4.00
2019-01-21T23:20:38.617Z,-4.00
2019-01-21T23:23:26.817Z,-4.00
2019-01-21T23:26:08.633Z,-4.00
2019-01-21T23:28:56.628Z,-4.00
2019-01-21T23:31:39.722Z,-3.90
2019-01-21T23:34:27.733Z,-4.00
2019-01-21T23:37:09.857Z,-4.00
2019-01-21T23:39:57.918Z,-4.10
2019-01-21T23:42:41.566Z,-4.20
2019-01-21T23:48:25.216Z,-4.10
2019-01-21T23:51:13.294Z,-4.10
2019-01-21T23:53:55.374Z,-4.10
2019-01-21T23:56:43.372Z,-4.20
2019-01-21T23:59:25.343Z,-4.10
